(°F)
-8°
-7°
-7°
-6°
-3°
(°F)
-17°
-16°
-16°
-15°
-12°
-8°
-4°
SE
SE
SE
SE
SSE
SSE
SSE
(mph)
4-12
4-12
4-12
4-12
4-12
4-10
4-10
(in)
0
0
0
0
0
0
0
(%)
0
0
0
0
0
0
0

Sun elevation

/ -25.5°
sun-icon
UV 1
08:49
17:14
Waning crescent (294°)
01:46
15:08

METAR for 51.02°N 71.47°E (UACC)

Time Conditions Temperature/
Dewpoint
Wind Visibility Weather Clouds Pressure Change Raw
MVFR °F / °F 70º 6kt 6000m - Clear 1030 No Significant change UACC 282330Z 07003MPS 6000 NSC M22/M24 Q1030 NOSIG RMK QFE740/0987
MVFR °F / °F 100º variable 080º to 140º 8kt 7000m - Clear 1030 No Significant change UACC 282300Z 10004MPS 080V140 7000 NSC M21/M24 Q1030 NOSIG RMK QFE741/0988
MVFR °F / °F 70º 8kt 6000m - Clear 1030 No Significant change UACC 282230Z 07004MPS 6000 NSC M19/M22 Q1030 NOSIG RMK QFE741/0988
IFR °F / °F 70º 8kt 4500m Mist Vertical Visibility of 0ft. 1030 No Significant change UACC 282200Z 07004MPS 4500 BR NSC M19/M22 Q1030 NOSIG RMK QFE741/0988
MVFR °F / °F 80º 8kt 5000m Mist Vertical Visibility of 0ft. 1031 No Significant change UACC 282130Z 08004MPS 5000 BR NSC M20/M22 Q1031 NOSIG RMK QFE741/0988
IFR °F / °F 80º 10kt 4700m Mist Vertical Visibility of 0ft. 1031 No Significant change UACC 282100Z 08005MPS 4700 BR NSC M19/M22 Q1031 NOSIG RMK QFE741/0988
MVFR °F / °F 80º 8kt 6000m - Clear 1031 No Significant change UACC 282030Z 08004MPS 6000 NSC M18/M21 Q1031 NOSIG RMK QFE741/0989
MVFR °F / °F 70º 6kt 6000m - Clear 1031 No Significant change UACC 282000Z 07003MPS 6000 NSC M18/M20 Q1031 NOSIG RMK QFE742/0989
VFR °F / °F 70º 6kt 9000m - Clear 1032 Temporary: Visibility 3100. Mist . RMK QFE742/0989 UACC 281930Z 07003MPS 9000 NSC M18/M21 Q1032 TEMPO 3100 BR RMK QFE742/0989
VFR °F / °F 60º 8kt 9000m - Clear 1032 Temporary: Visibility 3100. Mist . RMK QFE742/0990 UACC 281900Z 06004MPS 9000 NSC M16/M19 Q1032 TEMPO 3100 BR RMK QFE742/0990
MVFR °F / °F 60º 8kt 5000m Mist Vertical Visibility of 0ft. 1032 Temporary: Visibility 3100. Mist . RMK QFE742/0990 UACC 281830Z 06004MPS 5000 BR NSC M18/M20 Q1032 TEMPO 3100 BR RMK QFE742/0990
IFR °F / °F 70º 8kt 3500m Mist Vertical Visibility of 0ft. 1032 Temporary: Visibility 3100. Mist . RMK QFE742/0990 UACC 281800Z 07004MPS 3500 BR NSC M19/M21 Q1032 TEMPO 3100 BR RMK QFE742/0990
IFR °F / °F 80º 8kt 4600m Mist Vertical Visibility of 0ft. 1033 Temporary: Visibility 3100. Mist . RMK QFE743/0990 UACC 281730Z 08004MPS 4600 BR NSC M18/M21 Q1033 TEMPO 3100 BR RMK QFE743/0990
IFR °F / °F 80º 8kt 3700m Mist Vertical Visibility of 0ft. 1033 Temporary: Visibility 3100. Mist . RMK QFE743/0991 UACC 281700Z 08004MPS 3700 BR NSC M18/M20 Q1033 TEMPO 3100 BR RMK QFE743/0991
IFR °F / °F 80º 8kt 3000m Mist Vertical Visibility of 0ft. 1033 Temporary: Visibility 3100. Mist . RMK QFE743/0991 UACC 281630Z 08004MPS 3000 BR NSC M18/M20 Q1033 TEMPO 3100 BR RMK QFE743/0991
MVFR °F / °F 70º 6kt 5000m Mist Vertical Visibility of 0ft. 1033 No Significant change UACC 281608Z 07003MPS 5000 BR NSC M18/M20 Q1033 NOSIG RMK QFE743/0991
VFR °F / °F 70º 8kt 9000m - Clear 1034 No Significant change UACC 281530Z 07004MPS 9000 NSC M18/M20 Q1034 NOSIG RMK QFE743/0991
VFR °F / °F 80º 8kt >10km - Clouds and Visibility OK 1034 No Significant change UACC 281500Z 08004MPS CAVOK M18/M21 Q1034 NOSIG RMK QFE744/0992
VFR °F / °F 90º 8kt >10km - Clouds and Visibility OK 1034 No Significant change UACC 281430Z 09004MPS CAVOK M19/M21 Q1034 NOSIG RMK QFE743/0991
VFR °F / °F 80º 6kt >10km - Clouds and Visibility OK 1034 No Significant change UACC 281400Z 08003MPS CAVOK M18/M20 Q1034 NOSIG RMK QFE744/0992
VFR °F / °F 80º 6kt >10km - Clouds and Visibility OK 1034 No Significant change UACC 281330Z 08003MPS CAVOK M17/M19 Q1034 NOSIG RMK QFE744/0992
VFR °F / °F 90º 8kt >10km - Clouds and Visibility OK 1034 No Significant change UACC 281300Z 09004MPS CAVOK M16/M19 Q1034 NOSIG RMK QFE744/0992
VFR °F / °F 100º variable 060º to 140º 6kt >10km - Clouds and Visibility OK 1034 No Significant change UACC 281230Z 10003MPS 060V140 CAVOK M14/M15 Q1034 NOSIG RMK QFE744/0992
VFR °F / °F 150º 4kt >10km - Clouds and Visibility OK 1034 No Significant change UACC 281200Z 15002MPS CAVOK M11/M14 Q1034 NOSIG RMK QFE744/0992

MVFR

°F / °F

[More]
Wind 70º 6kt
Visibility 6000m
Weather -
Clouds Clear
Pressure 1030
Change No Significant change
Raw UACC 282330Z 07003MPS 6000 NSC M22/M24 Q1030 NOSIG RMK QFE740/0987

MVFR

°F / °F

[More]
Wind 100º variable 080º to 140º 8kt
Visibility 7000m
Weather -
Clouds Clear
Pressure 1030
Change No Significant change
Raw UACC 282300Z 10004MPS 080V140 7000 NSC M21/M24 Q1030 NOSIG RMK QFE741/0988

MVFR

°F / °F

[More]
Wind 70º 8kt
Visibility 6000m
Weather -
Clouds Clear
Pressure 1030
Change No Significant change
Raw UACC 282230Z 07004MPS 6000 NSC M19/M22 Q1030 NOSIG RMK QFE741/0988

IFR

°F / °F

[More]
Wind 70º 8kt
Visibility 4500m
Weather Mist
Clouds Vertical Visibility of 0ft.
Pressure 1030
Change No Significant change
Raw UACC 282200Z 07004MPS 4500 BR NSC M19/M22 Q1030 NOSIG RMK QFE741/0988

MVFR

°F / °F

[More]
Wind 80º 8kt
Visibility 5000m
Weather Mist
Clouds Vertical Visibility of 0ft.
Pressure 1031
Change No Significant change
Raw UACC 282130Z 08004MPS 5000 BR NSC M20/M22 Q1031 NOSIG RMK QFE741/0988

IFR

°F / °F

[More]
Wind 80º 10kt
Visibility 4700m
Weather Mist
Clouds Vertical Visibility of 0ft.
Pressure 1031
Change No Significant change
Raw UACC 282100Z 08005MPS 4700 BR NSC M19/M22 Q1031 NOSIG RMK QFE741/0988

MVFR

°F / °F

[More]
Wind 80º 8kt
Visibility 6000m
Weather -
Clouds Clear
Pressure 1031
Change No Significant change
Raw UACC 282030Z 08004MPS 6000 NSC M18/M21 Q1031 NOSIG RMK QFE741/0989

MVFR

°F / °F

[More]
Wind 70º 6kt
Visibility 6000m
Weather -
Clouds Clear
Pressure 1031
Change No Significant change
Raw UACC 282000Z 07003MPS 6000 NSC M18/M20 Q1031 NOSIG RMK QFE742/0989

VFR

°F / °F

[More]
Wind 70º 6kt
Visibility 9000m
Weather -
Clouds Clear
Pressure 1032
Change Temporary: Visibility 3100. Mist . RMK QFE742/0989
Raw UACC 281930Z 07003MPS 9000 NSC M18/M21 Q1032 TEMPO 3100 BR RMK QFE742/0989

VFR

°F / °F

[More]
Wind 60º 8kt
Visibility 9000m
Weather -
Clouds Clear
Pressure 1032
Change Temporary: Visibility 3100. Mist . RMK QFE742/0990
Raw UACC 281900Z 06004MPS 9000 NSC M16/M19 Q1032 TEMPO 3100 BR RMK QFE742/0990

MVFR

°F / °F

[More]
Wind 60º 8kt
Visibility 5000m
Weather Mist
Clouds Vertical Visibility of 0ft.
Pressure 1032
Change Temporary: Visibility 3100. Mist . RMK QFE742/0990
Raw UACC 281830Z 06004MPS 5000 BR NSC M18/M20 Q1032 TEMPO 3100 BR RMK QFE742/0990

IFR

°F / °F

[More]
Wind 70º 8kt
Visibility 3500m
Weather Mist
Clouds Vertical Visibility of 0ft.
Pressure 1032
Change Temporary: Visibility 3100. Mist . RMK QFE742/0990
Raw UACC 281800Z 07004MPS 3500 BR NSC M19/M21 Q1032 TEMPO 3100 BR RMK QFE742/0990

IFR

°F / °F

[More]
Wind 80º 8kt
Visibility 4600m
Weather Mist
Clouds Vertical Visibility of 0ft.
Pressure 1033
Change Temporary: Visibility 3100. Mist . RMK QFE743/0990
Raw UACC 281730Z 08004MPS 4600 BR NSC M18/M21 Q1033 TEMPO 3100 BR RMK QFE743/0990

IFR

°F / °F

[More]
Wind 80º 8kt
Visibility 3700m
Weather Mist
Clouds Vertical Visibility of 0ft.
Pressure 1033
Change Temporary: Visibility 3100. Mist . RMK QFE743/0991
Raw UACC 281700Z 08004MPS 3700 BR NSC M18/M20 Q1033 TEMPO 3100 BR RMK QFE743/0991

IFR

°F / °F

[More]
Wind 80º 8kt
Visibility 3000m
Weather Mist
Clouds Vertical Visibility of 0ft.
Pressure 1033
Change Temporary: Visibility 3100. Mist . RMK QFE743/0991
Raw UACC 281630Z 08004MPS 3000 BR NSC M18/M20 Q1033 TEMPO 3100 BR RMK QFE743/0991

MVFR

°F / °F

[More]
Wind 70º 6kt
Visibility 5000m
Weather Mist
Clouds Vertical Visibility of 0ft.
Pressure 1033
Change No Significant change
Raw UACC 281608Z 07003MPS 5000 BR NSC M18/M20 Q1033 NOSIG RMK QFE743/0991

VFR

°F / °F

[More]
Wind 70º 8kt
Visibility 9000m
Weather -
Clouds Clear
Pressure 1034
Change No Significant change
Raw UACC 281530Z 07004MPS 9000 NSC M18/M20 Q1034 NOSIG RMK QFE743/0991

VFR

°F / °F

[More]
Wind 80º 8kt
Visibility >10km
Weather -
Clouds Clouds and Visibility OK
Pressure 1034
Change No Significant change
Raw UACC 281500Z 08004MPS CAVOK M18/M21 Q1034 NOSIG RMK QFE744/0992

VFR

°F / °F

[More]
Wind 90º 8kt
Visibility >10km
Weather -
Clouds Clouds and Visibility OK
Pressure 1034
Change No Significant change
Raw UACC 281430Z 09004MPS CAVOK M19/M21 Q1034 NOSIG RMK QFE743/0991

VFR

°F / °F

[More]
Wind 80º 6kt
Visibility >10km
Weather -
Clouds Clouds and Visibility OK
Pressure 1034
Change No Significant change
Raw UACC 281400Z 08003MPS CAVOK M18/M20 Q1034 NOSIG RMK QFE744/0992

VFR

°F / °F

[More]
Wind 80º 6kt
Visibility >10km
Weather -
Clouds Clouds and Visibility OK
Pressure 1034
Change No Significant change
Raw UACC 281330Z 08003MPS CAVOK M17/M19 Q1034 NOSIG RMK QFE744/0992

VFR

°F / °F

[More]
Wind 90º 8kt
Visibility >10km
Weather -
Clouds Clouds and Visibility OK
Pressure 1034
Change No Significant change
Raw UACC 281300Z 09004MPS CAVOK M16/M19 Q1034 NOSIG RMK QFE744/0992

VFR

°F / °F

[More]
Wind 100º variable 060º to 140º 6kt
Visibility >10km
Weather -
Clouds Clouds and Visibility OK
Pressure 1034
Change No Significant change
Raw UACC 281230Z 10003MPS 060V140 CAVOK M14/M15 Q1034 NOSIG RMK QFE744/0992

VFR

°F / °F

[More]
Wind 150º 4kt
Visibility >10km
Weather -
Clouds Clouds and Visibility OK
Pressure 1034
Change No Significant change
Raw UACC 281200Z 15002MPS CAVOK M11/M14 Q1034 NOSIG RMK QFE744/0992

TAF for 51.02°N 71.47°E (UACC)

From till


Maximum Temperature -7ºC on . Minimum Temperature -21ºC on .
From till Wind 150º 8kt. Visibility 6000m. Scattered Clouds 1100ft. Scattered Clouds 2000ft.
Temporarly from till Wind 120º 8kt. Visibility 3100m. Mist . Few Clouds 400ft.
From till Wind 180º 8kt. Visibility 10km or more. Scattered Clouds 3000ft.

Raw: TAF UACC 282301Z 2900/2924 15004MPS 6000 SCT011 SCT020 TXM07/2909Z TNM21/2901Z TEMPO 2900/2903 12004MPS 3100 BR FEW004 FM290300 18004MPS 9999 SCT030

Current satellite and rain images for 51.02°N 71.47°E

The location marker is placed on 51.02°N 71.47°E. [More]

The real-time satellite image combines visible light during daytime with infrared radiation during nighttime. At night, the image is not dark as infrared radiation can detect temperature differences. Unfortunately, low clouds and fog are difficult to distinguish from ground temperatures and thus can be almost invisible during the night. Meteosat satellite images for Europe are updated in real-time every 5 minutes. GOES-16/GOES-17 (North & South America) and Himawari (Asia) images update every 10 minutes.

Copyright 2021 EUMETSAT / meteoblue. / Copyright 2021 meteoblue

Radar and precipitation nowcast for 51.02°N 71.47°E

Drizzle
Light
Moderate
Heavy
Very Heavy
Hail

The location marker is placed on 51.02°N 71.47°E. This animation shows the precipitation radar for the last hour, as well as a 1h forecast. Drizzle or light snow fall might be invisible for the radar. Precipitation intensity is colour coded, ranging from light blue to orange.